Current | Forecast
Updated: 11:30 AM +10 on September 26, 2017
Observed at Vladivostok, China
Temperature 66°F
Humidity 78%
Dew Point 59°F
Wind South at 9 mph
Pressure 29.92 in (Steady)
Conditions Mostly Cloudy
Visibility 6.2 miles
UV 3 out of 16
Clouds Mostly Cloudy (BKN) : 2800 ft
Yesterday's Maximum 73°F
Yesterday's Minimum 48°F approx.
Yesterday's Heating Degree Days 4 approx.
Sunrise5:06 AM CST
Sunset5:06 PM CST
Moon Rise10:46 AM CST
Moon Set8:45 PM CST
Moon PhaseMoon Phase
Waxing Crescent
Raw METARMETAR UHWW 260130Z 18004MPS 9999 BKN028 19/15 Q1013 R25L/0///70 NOSIG RMK QFE759


Monday
. High: 68° F.
Tuesday
. High: 66° F.
Wednesday
. High: 68° F.
Thursday
. High: 71° F.
Friday
. High: 68° F.
Saturday
. High: 68° F.
Sunday
. High: 68° F.
Monday
. High: 68° F.

Units: English | Metric

Find the Weather for any City, State or Zipcode, or Country:

U.S. State List | Severe Weather | Tropical Storms | Ski Conditions
United States | Canada | Central America | South America | Asia | Europe | Australia | Africa | Islands

Weather Underground

© Copyright 2017
The Weather Company, LLC